createdAt,value
2017-11-16T00:00:39.001Z,98823.27
2017-11-16T00:01:42.835Z,98794.09
2017-11-16T00:02:46.681Z,98781.98
2017-11-16T00:03:50.463Z,98768.47
2017-11-16T00:04:54.237Z,98795.95
2017-11-16T00:05:59.151Z,98796.86
2017-11-16T00:07:02.970Z,98767.28
2017-11-16T00:08:07.251Z,98790.46
2017-11-16T00:09:11.598Z,98782.14
2017-11-16T00:10:15.384Z,98777.67
2017-11-16T00:11:19.163Z,98767.03
2017-11-16T00:12:23.246Z,98773.66
2017-11-16T00:13:27.234Z,98789.17
2017-11-16T00:14:31.083Z,98789.17
2017-11-16T00:15:34.772Z,98790.45
2017-11-16T00:16:38.463Z,98782.63
2017-11-16T00:17:42.146Z,98795.30
2017-11-16T00:18:46.150Z,98774.69
2017-11-16T00:19:49.792Z,98766.52
2017-11-16T00:20:53.501Z,98765.38
2017-11-16T00:21:57.135Z,98762.67
2017-11-16T00:23:00.805Z,98769.25
2017-11-16T00:24:05.139Z,98737.88
2017-11-16T00:25:09.078Z,98788.73
2017-11-16T00:26:12.653Z,98762.48
2017-11-16T00:27:16.182Z,98767.94
2017-11-16T00:28:19.818Z,98745.66
2017-11-16T00:29:23.518Z,98765.17
2017-11-16T00:30:27.199Z,98775.48
2017-11-16T00:31:31.108Z,98793.17
2017-11-16T00:32:34.789Z,98759.88
2017-11-16T00:33:38.456Z,98738.94
2017-11-16T00:34:42.079Z,98779.13
2017-11-16T00:35:45.764Z,98772.40
2017-11-16T00:36:49.445Z,98777.42
2017-11-16T00:37:53.371Z,98763.23
2017-11-16T00:38:57.566Z,98780.23
2017-11-16T00:40:01.257Z,98774.80
2017-11-16T00:41:05.292Z,98737.39
2017-11-16T00:42:09.012Z,98762.05
2017-11-16T00:43:12.773Z,98736.80
2017-11-16T00:44:17.029Z,98767.53
2017-11-16T00:45:20.690Z,98743.37
2017-11-16T00:46:24.349Z,98744.05
2017-11-16T00:47:28.171Z,98772.05
2017-11-16T00:48:31.946Z,98757.98
2017-11-16T00:49:36.027Z,98776.06
2017-11-16T00:50:39.780Z,98775.06
2017-11-16T00:51:43.568Z,98765.28
2017-11-16T00:52:47.355Z,98775.88
2017-11-16T00:53:51.050Z,98766.36
2017-11-16T00:54:54.726Z,98777.09
2017-11-16T00:55:58.672Z,98755.27
2017-11-16T00:57:02.392Z,98777.25
2017-11-16T00:58:06.195Z,98732.10
2017-11-16T00:59:09.939Z,98772.95
2017-11-16T01:00:13.734Z,98748.70
2017-11-16T01:01:17.496Z,98771.31
2017-11-16T01:02:21.529Z,98760.25
2017-11-16T01:03:25.347Z,98759.37
2017-11-16T01:04:29.114Z,98769.66
2017-11-16T01:05:32.872Z,98775.20
2017-11-16T01:06:36.619Z,98779.73
2017-11-16T01:07:40.409Z,98763.63
2017-11-16T01:08:44.367Z,98777.77
2017-11-16T01:09:48.080Z,98771.48
2017-11-16T01:10:51.667Z,98759.39
2017-11-16T01:11:55.212Z,98733.48
2017-11-16T01:12:58.867Z,98747.80
2017-11-16T01:14:02.456Z,98768.42
2017-11-16T01:15:07.399Z,98765.00
2017-11-16T01:16:11.270Z,98747.84
2017-11-16T01:17:14.925Z,98756.14
2017-11-16T01:18:18.508Z,98765.43
2017-11-16T01:19:22.093Z,98767.64
2017-11-16T01:20:25.638Z,98766.95
2017-11-16T01:21:29.513Z,98752.16
2017-11-16T01:22:33.110Z,98754.34
2017-11-16T01:23:36.679Z,98741.11
2017-11-16T01:24:40.255Z,98761.15
2017-11-16T01:25:43.852Z,98740.67
2017-11-16T01:26:47.420Z,98763.27
2017-11-16T01:27:51.445Z,98765.27
2017-11-16T01:28:55.116Z,98742.00
2017-11-16T01:29:58.805Z,98718.67
2017-11-16T01:31:02.522Z,98761.49
2017-11-16T01:32:06.328Z,98759.37
2017-11-16T01:33:10.002Z,98733.54
2017-11-16T01:34:13.995Z,98758.15
2017-11-16T01:35:17.788Z,98745.52
2017-11-16T01:36:21.516Z,98738.10
2017-11-16T01:37:25.344Z,98744.64
2017-11-16T01:38:29.075Z,98740.44
2017-11-16T01:39:32.895Z,98747.78
2017-11-16T01:40:36.906Z,98747.30
2017-11-16T01:41:40.567Z,98737.45
2017-11-16T01:42:44.258Z,98748.30
2017-11-16T01:43:47.923Z,98750.49
2017-11-16T01:44:51.479Z,98749.99
2017-11-16T01:45:55.108Z,98749.26
2017-11-16T01:46:58.958Z,98749.58
2017-11-16T01:48:02.531Z,98739.89
2017-11-16T01:49:06.076Z,98745.55
2017-11-16T01:50:09.546Z,98741.55
2017-11-16T01:51:13.902Z,98748.02
2017-11-16T01:52:17.488Z,98740.45
2017-11-16T01:53:21.403Z,98716.62
2017-11-16T01:54:30.180Z,98738.97
2017-11-16T01:55:33.701Z,98738.55
2017-11-16T01:56:37.264Z,98736.62
2017-11-16T01:57:40.842Z,98737.34
2017-11-16T01:58:44.622Z,98732.09
2017-11-16T01:59:48.525Z,98721.22
2017-11-16T02:15:50.099Z,98721.06
2017-11-16T02:16:53.827Z,98717.02
2017-11-16T02:17:57.526Z,98699.50
2017-11-16T02:19:01.308Z,98710.67
2017-11-16T02:20:05.293Z,98702.16
2017-11-16T02:21:09.401Z,98719.84
2017-11-16T02:22:13.323Z,98698.66
2017-11-16T02:23:17.097Z,98702.92
2017-11-16T02:24:20.892Z,98699.40
2017-11-16T02:25:24.648Z,98700.52
2017-11-16T02:26:28.857Z,98700.20
2017-11-16T02:27:32.931Z,98708.80
2017-11-16T02:28:36.714Z,98694.42
2017-11-16T02:29:40.635Z,98704.58
2017-11-16T02:30:44.258Z,98707.25
2017-11-16T02:31:47.921Z,98706.45
2017-11-16T02:32:51.583Z,98696.80
2017-11-16T02:33:55.525Z,98685.62
2017-11-16T02:34:59.191Z,98696.40
2017-11-16T02:36:02.856Z,98696.86
2017-11-16T02:37:06.459Z,98677.70
2017-11-16T02:38:10.097Z,98705.67
2017-11-16T02:39:13.782Z,98696.58
2017-11-16T02:40:17.781Z,98698.41
2017-11-16T02:41:21.496Z,98696.63
2017-11-16T02:42:25.174Z,98687.71
2017-11-16T02:43:28.846Z,98694.22
2017-11-16T02:44:32.614Z,98699.98
2017-11-16T02:45:36.285Z,98692.71
2017-11-16T02:46:40.220Z,98691.27
2017-11-16T02:47:44.005Z,98696.06
2017-11-16T02:48:47.693Z,98686.98
2017-11-16T02:49:51.373Z,98687.97
2017-11-16T02:50:55.139Z,98688.02
2017-11-16T02:51:58.923Z,98704.47
2017-11-16T02:53:02.981Z,98688.97
2017-11-16T02:54:06.738Z,98688.80
2017-11-16T02:55:10.463Z,98685.72
2017-11-16T02:56:14.239Z,98658.70
2017-11-16T02:57:18.342Z,98683.21
2017-11-16T02:58:22.114Z,98656.05
2017-11-16T02:59:26.238Z,98683.98
2017-11-16T03:00:30.046Z,98683.31
2017-11-16T03:01:33.836Z,98682.25
2017-11-16T03:02:37.629Z,98681.89
2017-11-16T03:03:41.345Z,98680.44
2017-11-16T03:04:44.974Z,98669.87
2017-11-16T03:05:48.904Z,98672.55
2017-11-16T03:06:52.548Z,98679.81
2017-11-16T03:07:56.193Z,98676.80
2017-11-16T03:08:59.942Z,98672.05
2017-11-16T03:10:03.871Z,98676.89
2017-11-16T03:11:07.687Z,98673.53
2017-11-16T03:12:11.626Z,98655.08
2017-11-16T03:13:15.246Z,98665.64
2017-11-16T03:14:19.445Z,98669.41
2017-11-16T03:15:23.069Z,98670.43
2017-11-16T03:16:26.753Z,98674.39
2017-11-16T03:17:30.402Z,98670.15
2017-11-16T03:18:34.308Z,98665.14
2017-11-16T03:19:37.934Z,98667.48
2017-11-16T03:20:41.599Z,98664.17
2017-11-16T03:21:45.374Z,98672.34
2017-11-16T03:22:49.183Z,98679.66
2017-11-16T03:23:52.971Z,98655.98
2017-11-16T03:24:57.092Z,98670.24
2017-11-16T03:26:00.881Z,98671.23
2017-11-16T03:27:04.670Z,98673.95
2017-11-16T03:28:08.452Z,98656.49
2017-11-16T03:29:12.207Z,98675.81
2017-11-16T03:30:15.964Z,98659.77
2017-11-16T03:31:20.002Z,98662.02
2017-11-16T03:32:23.629Z,98675.70
2017-11-16T03:33:27.269Z,98667.84
2017-11-16T03:34:31.798Z,98669.03
2017-11-16T03:35:35.558Z,98682.63
2017-11-16T03:36:39.433Z,98656.28
2017-11-16T03:37:44.133Z,98655.06
2017-11-16T03:38:47.971Z,98664.02
2017-11-16T03:39:51.772Z,98667.66
2017-11-16T03:40:55.587Z,98666.75
2017-11-16T03:41:59.344Z,98661.77
2017-11-16T03:43:03.013Z,98665.28
2017-11-16T03:44:06.970Z,98667.07
2017-11-16T03:45:10.644Z,98663.00
2017-11-16T03:46:14.317Z,98660.37
2017-11-16T03:47:18.021Z,98662.63
2017-11-16T03:48:21.716Z,98634.09
2017-11-16T03:49:25.384Z,98644.73
2017-11-16T03:50:29.349Z,98660.55
2017-11-16T03:51:33.022Z,98655.47
2017-11-16T03:52:37.270Z,98652.09
2017-11-16T03:53:41.006Z,98641.17
2017-11-16T03:54:44.796Z,98655.91
2017-11-16T03:55:48.641Z,98655.80
2017-11-16T03:56:52.667Z,98664.86
2017-11-16T03:57:56.434Z,98660.63
2017-11-16T03:59:00.254Z,98651.11
2017-11-16T04:00:04.044Z,98639.45
2017-11-16T04:01:08.001Z,98653.50
2017-11-16T04:02:11.787Z,98653.88
2017-11-16T04:03:15.827Z,98664.04
2017-11-16T04:04:19.681Z,98664.20
2017-11-16T04:05:23.436Z,98666.08
2017-11-16T04:06:27.202Z,98674.04
2017-11-16T04:07:31.439Z,98655.47
2017-11-16T04:08:35.212Z,98665.27
2017-11-16T04:09:39.378Z,98629.57
2017-11-16T04:10:43.127Z,98669.55
2017-11-16T04:11:46.941Z,98659.80
2017-11-16T04:12:50.831Z,98670.04
2017-11-16T04:13:54.569Z,98670.55
2017-11-16T04:14:58.351Z,98635.30
2017-11-16T04:16:02.462Z,98668.80
2017-11-16T04:17:06.317Z,98673.48
2017-11-16T04:18:10.092Z,98671.41
2017-11-16T04:19:13.877Z,98667.81
2017-11-16T04:20:17.672Z,98669.36
2017-11-16T04:21:21.472Z,98662.92
2017-11-16T04:22:25.628Z,98650.51
2017-11-16T04:23:29.404Z,98664.94
2017-11-16T04:24:33.162Z,98662.78
2017-11-16T04:25:36.972Z,98665.81
2017-11-16T04:26:40.717Z,98655.41
2017-11-16T04:27:44.536Z,98667.81
2017-11-16T04:28:48.644Z,98663.43
2017-11-16T04:29:52.440Z,98672.55
2017-11-16T04:30:56.239Z,98642.28
2017-11-16T04:32:00.041Z,98651.37
2017-11-16T04:33:03.810Z,98658.28
2017-11-16T04:34:07.537Z,98661.41
2017-11-16T04:35:11.589Z,98671.34
2017-11-16T04:36:15.369Z,98663.70
2017-11-16T04:37:19.076Z,98676.50
2017-11-16T04:38:22.809Z,98639.88
2017-11-16T04:39:26.418Z,98668.95
2017-11-16T04:40:30.040Z,98661.83
2017-11-16T04:41:34.304Z,98691.28
2017-11-16T04:42:39.313Z,98684.50
2017-11-16T04:43:42.940Z,98691.22
2017-11-16T04:44:46.569Z,98682.45
2017-11-16T04:45:50.255Z,98658.58
2017-11-16T04:46:54.017Z,98684.11
2017-11-16T04:47:58.093Z,98696.64
2017-11-16T04:49:01.914Z,98667.73
2017-11-16T04:50:05.680Z,98691.91
2017-11-16T04:51:09.934Z,98711.20
2017-11-16T04:52:14.342Z,98698.02
2017-11-16T04:53:18.128Z,98698.64
2017-11-16T04:54:22.253Z,98668.17
2017-11-16T04:55:26.074Z,98677.85
2017-11-16T04:56:29.872Z,98690.87
2017-11-16T04:57:33.749Z,98696.30
2017-11-16T04:58:37.548Z,98684.13
2017-11-16T04:59:41.302Z,98685.47
2017-11-16T05:15:12.785Z,98684.20
2017-11-16T05:16:16.563Z,98690.33
2017-11-16T05:17:20.438Z,98689.27
2017-11-16T05:18:24.216Z,98673.00
2017-11-16T05:19:28.036Z,98682.05
2017-11-16T05:20:32.171Z,98670.13
2017-11-16T05:21:35.986Z,98691.28
2017-11-16T05:22:39.756Z,98689.11
2017-11-16T05:23:43.572Z,98692.23
2017-11-16T05:24:47.392Z,98686.98
2017-11-16T05:25:51.154Z,98691.14
2017-11-16T05:26:55.260Z,98694.76
2017-11-16T05:27:58.861Z,98689.20
2017-11-16T05:29:02.497Z,98688.25
2017-11-16T05:30:06.917Z,98685.52
2017-11-16T05:31:10.761Z,98683.81
2017-11-16T05:32:14.457Z,98678.49
2017-11-16T05:33:18.400Z,98682.69
2017-11-16T05:34:22.374Z,98685.23
2017-11-16T05:35:26.098Z,98659.93
2017-11-16T05:36:29.771Z,98678.22
2017-11-16T05:37:33.420Z,98680.30
2017-11-16T05:38:37.099Z,98670.11
2017-11-16T05:39:41.608Z,98666.89
2017-11-16T05:40:45.308Z,98654.70
2017-11-16T05:41:49.107Z,98636.08
2017-11-16T05:42:52.858Z,98664.92
2017-11-16T05:43:56.623Z,98665.30
2017-11-16T05:45:00.473Z,98672.30
2017-11-16T05:46:04.731Z,98667.69
2017-11-16T05:47:08.593Z,98664.72
2017-11-16T05:48:12.380Z,98647.37
2017-11-16T05:49:16.128Z,98648.86
2017-11-16T05:50:20.027Z,98664.00
2017-11-16T05:51:23.767Z,98658.86
2017-11-16T05:52:27.898Z,98660.59
2017-11-16T05:53:31.741Z,98648.20
2017-11-16T05:54:35.531Z,98655.23
2017-11-16T05:55:39.337Z,98656.12
2017-11-16T05:56:43.098Z,98653.58
2017-11-16T05:57:46.934Z,98656.86
2017-11-16T05:58:51.028Z,98661.72
2017-11-16T05:59:54.803Z,98659.67
2017-11-16T06:00:58.583Z,98660.95
2017-11-16T06:02:02.346Z,98649.27
2017-11-16T06:03:06.179Z,98666.54
2017-11-16T06:04:09.981Z,98664.52
2017-11-16T06:05:14.487Z,98662.81
2017-11-16T06:06:18.275Z,98659.34
2017-11-16T06:07:22.113Z,98658.66
2017-11-16T06:08:25.999Z,98661.16
2017-11-16T06:09:29.783Z,98650.77
2017-11-16T06:10:33.560Z,98649.64
2017-11-16T06:11:38.496Z,98661.92
2017-11-16T06:12:42.283Z,98668.69
2017-11-16T06:13:46.161Z,98662.88
2017-11-16T06:14:49.910Z,98628.66
2017-11-16T06:15:54.574Z,98616.23
2017-11-16T06:16:58.387Z,98668.39
2017-11-16T06:18:02.411Z,98670.96
2017-11-16T06:19:06.109Z,98594.55
2017-11-16T06:20:09.834Z,98646.77
2017-11-16T06:21:13.528Z,98660.27
2017-11-16T06:22:17.409Z,98677.20
2017-11-16T06:23:21.141Z,98606.50
2017-11-16T06:24:25.228Z,98675.97
2017-11-16T06:25:29.166Z,98676.27
2017-11-16T06:26:32.942Z,98676.70
2017-11-16T06:27:36.724Z,98665.39
2017-11-16T06:28:40.533Z,98673.70
2017-11-16T06:29:44.392Z,98678.55
2017-11-16T06:30:48.627Z,98691.70
2017-11-16T06:31:52.414Z,98676.36
2017-11-16T06:32:56.266Z,98667.03
2017-11-16T06:34:00.026Z,98678.55
2017-11-16T06:35:03.730Z,98666.52
2017-11-16T06:36:08.263Z,98665.27
2017-11-16T06:37:12.336Z,98678.87
2017-11-16T06:38:17.023Z,98679.31
2017-11-16T06:39:20.727Z,98651.00
2017-11-16T06:40:24.656Z,98674.44
2017-11-16T06:41:28.583Z,98664.52
2017-11-16T06:42:32.751Z,98572.84
2017-11-16T06:43:37.048Z,98677.41
2017-11-16T06:44:40.974Z,98664.41
2017-11-16T06:45:44.823Z,98673.27
2017-11-16T06:46:48.675Z,98670.35
2017-11-16T06:47:52.550Z,98678.12
2017-11-16T06:48:56.446Z,98683.55
2017-11-16T06:50:00.863Z,98677.39
2017-11-16T06:51:06.561Z,98675.19
2017-11-16T06:52:10.465Z,98660.50
2017-11-16T06:53:14.270Z,98667.48
2017-11-16T06:54:19.044Z,98605.38
2017-11-16T06:55:22.964Z,98672.34
2017-11-16T06:56:27.205Z,98669.53
2017-11-16T06:57:31.372Z,98671.02
2017-11-16T06:58:35.183Z,98670.12
2017-11-16T06:59:39.946Z,98630.98
2017-11-16T07:00:44.025Z,98662.95
2017-11-16T07:01:47.840Z,98666.59
2017-11-16T07:02:52.331Z,98666.98
2017-11-16T07:03:57.324Z,98667.55
2017-11-16T07:05:02.059Z,98615.34
2017-11-16T07:06:06.099Z,98435.16
2017-11-16T07:07:11.598Z,98669.20
2017-11-16T07:08:15.408Z,98655.16
2017-11-16T07:09:20.135Z,98671.19
2017-11-16T07:10:24.056Z,98670.34
2017-11-16T07:11:27.931Z,98630.98
2017-11-16T07:12:31.742Z,98681.50
2017-11-16T07:13:35.543Z,98664.59
2017-11-16T07:14:39.310Z,98650.13
2017-11-16T07:15:43.473Z,98664.08
2017-11-16T07:16:47.285Z,98664.91
2017-11-16T07:17:51.051Z,98647.61
2017-11-16T07:18:54.867Z,98675.16
2017-11-16T07:19:58.662Z,98675.29
2017-11-16T07:21:02.483Z,98656.59
2017-11-16T07:22:06.879Z,98670.55
2017-11-16T07:23:10.693Z,98600.98
2017-11-16T07:24:14.360Z,98573.61
2017-11-16T07:25:18.097Z,98666.42
2017-11-16T07:26:21.825Z,98672.89
2017-11-16T07:27:25.591Z,98671.53
2017-11-16T07:28:29.573Z,98647.90
2017-11-16T07:29:33.403Z,98672.95
2017-11-16T07:30:37.255Z,98676.62
2017-11-16T07:31:41.288Z,98675.91
2017-11-16T07:32:45.136Z,98669.48
2017-11-16T07:33:49.178Z,98677.50
2017-11-16T07:34:54.034Z,98690.84
2017-11-16T07:35:57.883Z,98687.48
2017-11-16T07:37:01.631Z,98680.86
2017-11-16T07:38:05.522Z,98621.81
2017-11-16T07:39:09.250Z,98658.41
2017-11-16T07:40:12.988Z,98671.91
2017-11-16T07:41:17.083Z,98651.41
2017-11-16T07:42:20.879Z,98671.05
2017-11-16T07:43:24.707Z,98686.08
2017-11-16T07:44:28.580Z,98688.57
2017-11-16T07:45:32.437Z,98689.55
2017-11-16T07:46:36.244Z,98619.52
2017-11-16T07:47:40.719Z,98686.88
2017-11-16T07:48:45.180Z,98684.99
2017-11-16T07:49:49.211Z,98695.06
2017-11-16T07:50:53.465Z,98690.02
2017-11-16T07:51:57.486Z,98684.13
2017-11-16T07:53:01.675Z,98680.33
2017-11-16T07:54:05.926Z,98684.80
2017-11-16T07:55:09.753Z,98678.06
2017-11-16T07:56:13.763Z,98646.45
2017-11-16T07:57:17.813Z,98685.02
2017-11-16T07:58:21.663Z,98697.73
2017-11-16T07:59:25.463Z,98693.02
2017-11-16T08:00:29.759Z,98697.84
2017-11-16T08:01:33.612Z,98695.84
2017-11-16T08:02:37.432Z,98693.30
2017-11-16T08:03:41.214Z,98691.73
2017-11-16T08:04:47.064Z,98699.07
2017-11-16T08:05:50.848Z,98671.23
2017-11-16T08:06:55.048Z,98653.34
2017-11-16T08:07:58.860Z,98692.76
2017-11-16T08:09:02.658Z,98704.55
2017-11-16T08:10:06.450Z,98687.25
2017-11-16T08:11:10.252Z,98668.67
2017-11-16T08:12:14.100Z,98683.60
2017-11-16T08:13:18.211Z,98698.75
2017-11-16T08:14:22.023Z,98698.14
2017-11-16T08:30:03.296Z,98635.23
2017-11-16T08:31:07.114Z,98695.25
2017-11-16T08:32:11.153Z,98705.17
2017-11-16T08:33:14.971Z,98712.49
2017-11-16T08:34:18.815Z,98637.31
2017-11-16T08:35:23.066Z,98714.09
2017-11-16T08:36:26.920Z,98709.55
2017-11-16T08:37:30.740Z,98698.20
2017-11-16T08:38:34.570Z,98685.38
2017-11-16T08:39:38.401Z,98710.00
2017-11-16T08:40:42.232Z,98715.88
2017-11-16T08:41:46.346Z,98706.28
2017-11-16T08:42:50.068Z,98700.34
2017-11-16T08:43:53.850Z,98672.83
2017-11-16T08:44:57.607Z,98708.62
2017-11-16T08:46:01.330Z,98708.16
2017-11-16T08:47:05.105Z,98712.91
2017-11-16T08:48:09.903Z,98705.56
2017-11-16T08:49:13.748Z,98703.84
2017-11-16T08:50:17.647Z,98704.70
2017-11-16T08:51:21.395Z,98713.62
2017-11-16T08:52:25.343Z,98714.31
2017-11-16T08:53:29.085Z,98723.59
2017-11-16T08:54:33.203Z,98724.08
2017-11-16T08:55:36.971Z,98724.27
2017-11-16T08:56:40.799Z,98726.49
2017-11-16T08:57:44.648Z,98725.90
2017-11-16T08:58:48.752Z,98700.52
2017-11-16T08:59:52.551Z,98723.53
2017-11-16T09:00:56.849Z,98728.78
2017-11-16T09:02:00.765Z,98728.31
2017-11-16T09:03:04.932Z,98727.30
2017-11-16T09:04:08.840Z,98644.05
2017-11-16T09:05:12.956Z,98694.69
2017-11-16T09:06:16.909Z,98726.55
2017-11-16T09:07:21.108Z,98725.64
2017-11-16T09:08:24.937Z,98726.42
2017-11-16T09:09:28.767Z,98727.95
2017-11-16T09:10:32.661Z,98722.64
2017-11-16T09:11:37.055Z,98725.67
2017-11-16T09:12:40.858Z,98728.63
2017-11-16T09:13:45.049Z,98724.98
2017-11-16T09:14:48.850Z,98722.48
2017-11-16T09:15:52.677Z,98674.62
2017-11-16T09:16:58.359Z,98729.42
2017-11-16T09:18:02.757Z,98727.11
2017-11-16T09:19:06.916Z,98740.31
2017-11-16T09:20:11.417Z,98671.47
2017-11-16T09:21:15.380Z,98728.86
2017-11-16T09:22:19.258Z,98727.25
2017-11-16T09:23:23.673Z,98734.18
2017-11-16T09:24:27.471Z,98731.75
2017-11-16T09:25:32.054Z,98735.17
2017-11-16T09:26:36.357Z,98731.09
2017-11-16T09:27:40.179Z,98729.75
2017-11-16T09:28:44.176Z,98732.58
2017-11-16T09:29:48.044Z,98735.42
2017-11-16T09:30:51.844Z,98740.11
2017-11-16T09:31:55.858Z,98742.55
2017-11-16T09:33:00.076Z,98744.63
2017-11-16T09:34:04.293Z,98746.27
2017-11-16T09:35:08.124Z,98741.28
2017-11-16T09:36:11.939Z,98746.67
2017-11-16T09:37:15.747Z,98741.05
2017-11-16T09:38:19.763Z,98749.58
2017-11-16T09:39:24.009Z,98745.61
2017-11-16T09:40:27.840Z,98730.06
2017-11-16T09:41:31.731Z,98749.45
2017-11-16T09:42:35.572Z,98711.55
2017-11-16T09:43:39.222Z,98703.95
2017-11-16T09:44:42.925Z,98756.36
2017-11-16T09:45:46.974Z,98747.27
2017-11-16T09:46:50.759Z,98747.95
2017-11-16T09:47:54.613Z,98754.44
2017-11-16T09:48:58.477Z,98729.28
2017-11-16T09:50:02.279Z,98744.67
2017-11-16T09:51:06.036Z,98732.03
2017-11-16T09:52:11.706Z,98733.13
2017-11-16T09:53:15.568Z,98733.31
2017-11-16T09:54:19.526Z,98713.11
2017-11-16T09:55:23.429Z,98717.60
2017-11-16T09:56:27.410Z,98727.67
2017-11-16T09:57:31.259Z,98744.70
2017-11-16T09:58:35.370Z,98712.92
2017-11-16T09:59:39.203Z,98743.81
2017-11-16T10:00:43.109Z,98744.03
2017-11-16T10:01:46.934Z,98740.41
2017-11-16T10:02:50.773Z,98745.09
2017-11-16T10:03:54.876Z,98723.73
2017-11-16T10:04:58.717Z,98713.41
2017-11-16T10:06:07.976Z,98747.44
2017-11-16T10:07:11.875Z,98752.97
2017-11-16T10:08:23.137Z,98745.53
2017-11-16T10:09:39.466Z,98758.30
2017-11-16T10:10:43.381Z,98763.66
2017-11-16T10:11:47.200Z,98686.42
2017-11-16T10:12:51.023Z,98762.01
2017-11-16T10:13:54.884Z,98754.95
2017-11-16T10:14:58.724Z,98752.58
2017-11-16T10:16:03.069Z,98656.55
2017-11-16T10:17:06.882Z,98746.84
2017-11-16T10:18:11.176Z,98732.62
2017-11-16T10:19:15.054Z,98730.03
2017-11-16T10:20:18.937Z,98741.15
2017-11-16T10:21:22.708Z,98744.66
2017-11-16T10:22:26.918Z,98743.78
2017-11-16T10:23:30.771Z,98742.59
2017-11-16T10:24:34.716Z,98744.23
2017-11-16T10:25:38.562Z,98715.39
2017-11-16T10:26:42.551Z,98726.75
2017-11-16T10:27:46.399Z,98712.02
2017-11-16T10:28:50.527Z,98696.89
2017-11-16T10:29:54.598Z,98644.20
2017-11-16T10:30:58.418Z,98728.34
2017-11-16T10:32:02.594Z,98692.75
2017-11-16T10:33:06.435Z,98715.61
2017-11-16T10:34:10.413Z,98737.85
2017-11-16T10:35:14.695Z,98698.45
2017-11-16T10:36:18.548Z,98679.38
2017-11-16T10:37:22.346Z,98702.18
2017-11-16T10:38:26.150Z,98732.66
2017-11-16T10:39:30.146Z,98706.81
2017-11-16T10:40:34.101Z,98736.27
2017-11-16T10:41:38.538Z,98730.71
2017-11-16T10:42:42.345Z,98723.03
2017-11-16T10:43:46.403Z,98726.89
2017-11-16T10:44:50.236Z,98724.01
2017-11-16T10:45:54.176Z,98719.03
2017-11-16T10:46:58.072Z,98709.55
2017-11-16T10:48:02.241Z,98716.62
2017-11-16T10:49:06.069Z,98705.17
2017-11-16T10:50:09.897Z,98716.44
2017-11-16T10:51:13.703Z,98706.66
2017-11-16T10:52:17.616Z,98708.64
2017-11-16T10:53:21.474Z,98701.88
2017-11-16T10:54:25.621Z,98696.13
2017-11-16T10:55:29.468Z,98688.70
2017-11-16T10:56:33.274Z,98699.87
2017-11-16T10:57:37.122Z,98694.91
2017-11-16T10:58:51.770Z,98686.71
2017-11-16T11:15:20.094Z,98659.50
2017-11-16T11:16:24.579Z,98665.03
2017-11-16T11:17:28.479Z,98663.59
2017-11-16T11:18:32.324Z,98599.44
2017-11-16T11:19:41.238Z,98663.20
2017-11-16T11:20:46.433Z,98659.18
2017-11-16T11:21:51.255Z,98554.50
2017-11-16T11:22:57.621Z,98643.52
2017-11-16T11:24:02.316Z,98633.33
2017-11-16T11:25:07.213Z,98614.37
2017-11-16T11:26:11.476Z,98659.16
2017-11-16T11:27:15.358Z,98647.23
2017-11-16T11:28:19.119Z,98639.94
2017-11-16T11:29:22.966Z,98640.58
2017-11-16T11:30:26.934Z,98639.07
2017-11-16T11:31:30.778Z,98640.36
2017-11-16T11:32:35.062Z,98636.73
2017-11-16T11:33:38.937Z,98635.00
2017-11-16T11:34:42.816Z,98625.98
2017-11-16T11:35:46.660Z,98600.19
2017-11-16T11:36:50.533Z,98621.22
2017-11-16T11:37:54.365Z,98608.73
2017-11-16T11:38:58.917Z,98585.72
2017-11-16T11:40:02.914Z,98618.73
2017-11-16T11:41:06.724Z,98582.36
2017-11-16T11:42:10.533Z,98609.13
2017-11-16T11:43:14.431Z,98620.31
2017-11-16T11:44:18.264Z,98523.49
2017-11-16T11:45:22.573Z,98620.05
2017-11-16T11:46:26.546Z,98621.08
2017-11-16T11:47:30.443Z,98559.02
2017-11-16T11:48:34.243Z,98582.32
2017-11-16T11:49:38.090Z,98609.72
2017-11-16T11:50:42.552Z,98612.02
2017-11-16T11:51:46.700Z,98596.94
2017-11-16T11:52:50.667Z,98596.88
2017-11-16T11:53:54.640Z,98597.14
2017-11-16T11:54:58.448Z,98607.22
2017-11-16T11:56:02.303Z,98615.02
2017-11-16T11:57:06.168Z,98600.48
2017-11-16T11:58:10.925Z,98600.27
2017-11-16T11:59:14.733Z,98610.14
2017-11-16T12:00:18.854Z,98603.38
2017-11-16T12:01:23.399Z,98598.97
2017-11-16T12:02:28.219Z,98611.60
2017-11-16T12:03:33.110Z,98565.97
2017-11-16T12:04:37.664Z,98618.25
2017-11-16T12:05:41.617Z,98614.52
2017-11-16T12:06:47.603Z,98572.02
2017-11-16T12:07:53.991Z,98620.93
2017-11-16T12:08:57.731Z,98610.38
2017-11-16T12:10:03.242Z,98626.61
2017-11-16T12:11:07.958Z,98621.73
2017-11-16T12:12:11.748Z,98622.77
2017-11-16T12:13:16.300Z,98620.19
2017-11-16T12:14:20.114Z,98628.95
2017-11-16T12:15:23.921Z,98629.59
2017-11-16T12:16:28.074Z,98628.38
2017-11-16T12:17:32.385Z,98630.45
2017-11-16T12:18:36.769Z,98632.77
2017-11-16T12:19:40.626Z,98629.37
2017-11-16T12:20:44.902Z,98464.80
2017-11-16T12:21:48.592Z,98631.81
2017-11-16T12:22:52.280Z,98605.19
2017-11-16T12:23:56.980Z,98629.05
2017-11-16T12:25:00.670Z,98609.38
2017-11-16T12:26:04.430Z,98622.97
2017-11-16T12:27:08.269Z,98616.15
2017-11-16T12:28:12.220Z,98594.42
2017-11-16T12:29:16.109Z,98601.77
2017-11-16T12:30:20.424Z,98606.66
2017-11-16T12:31:24.293Z,98607.82
2017-11-16T12:32:28.155Z,98613.55
2017-11-16T12:33:32.043Z,98596.77
2017-11-16T12:34:35.897Z,98625.86
2017-11-16T12:35:39.851Z,98620.47
2017-11-16T12:36:43.974Z,98627.48
2017-11-16T12:37:47.933Z,98617.97
2017-11-16T12:38:52.902Z,98607.66
2017-11-16T12:39:56.774Z,98608.61
2017-11-16T12:41:00.647Z,98607.36
2017-11-16T12:42:04.536Z,98619.80
2017-11-16T12:43:08.843Z,98615.12
2017-11-16T12:44:13.280Z,98612.34
2017-11-16T12:45:17.137Z,98606.35
2017-11-16T12:46:20.880Z,98591.95
2017-11-16T12:47:25.374Z,98513.72
2017-11-16T12:48:29.061Z,98497.20
2017-11-16T12:49:33.112Z,98581.54
2017-11-16T12:50:37.628Z,98615.45
2017-11-16T12:51:41.779Z,98615.12
2017-11-16T12:52:45.955Z,98575.22
2017-11-16T12:53:49.840Z,98616.98
2017-11-16T12:54:54.116Z,98618.34
2017-11-16T12:55:57.984Z,98620.18
2017-11-16T12:57:01.809Z,98618.58
2017-11-16T12:58:05.624Z,98619.57
2017-11-16T12:59:09.535Z,98618.77
2017-11-16T13:00:13.339Z,98613.75
2017-11-16T13:01:19.220Z,98582.83
2017-11-16T13:02:23.360Z,98605.08
2017-11-16T13:03:27.264Z,98539.67
2017-11-16T13:04:31.998Z,98616.62
2017-11-16T13:05:35.790Z,98609.97
2017-11-16T13:06:39.590Z,98617.78
2017-11-16T13:07:43.824Z,98613.41
2017-11-16T13:08:47.780Z,98621.16
2017-11-16T13:09:51.600Z,98553.97
2017-11-16T13:10:55.920Z,98616.83
2017-11-16T13:11:59.767Z,98612.77
2017-11-16T13:13:03.626Z,98612.20
2017-11-16T13:14:07.842Z,98609.11
2017-11-16T13:15:11.720Z,98609.61
2017-11-16T13:16:15.567Z,98597.01
2017-11-16T13:17:19.411Z,98572.45
2017-11-16T13:18:23.338Z,98567.84
2017-11-16T13:19:27.471Z,98598.29
2017-11-16T13:20:31.833Z,98584.91
2017-11-16T13:21:35.678Z,98605.29
2017-11-16T13:22:39.760Z,98600.38
2017-11-16T13:23:43.562Z,98597.77
2017-11-16T13:24:47.437Z,98597.80
2017-11-16T13:25:51.679Z,98597.77
2017-11-16T13:26:55.509Z,98579.25
2017-11-16T13:27:59.232Z,98585.50
2017-11-16T13:29:03.016Z,98569.91
2017-11-16T13:30:06.936Z,98585.85
2017-11-16T13:31:10.794Z,98596.48